Magnolia — WDB7135 — position and weather

sailwx.info

Track history (hours):
 
Tides and Currents Weather Stations Pressure Air Temp Water Temp Dewpoint Dewpoint Depression Visibility Wind Speed Wind Dir Waves Ship Positions

Magnolia

Owner: Magnolia Marine Transport Co, Vicksburg, MS. More information available from US FCC via Universal Licensing System and Coast Guard Vessel Documentation Center.

Last reported at 2017-Oct-16 18:55 UTC. Time now 2017-Oct-19 21:38 UTC.
Position N 32°06' W 091°06'.

Length 215 m.

MMSI: 366936960.

Date/timePositionNaut miles runAvg speedWind from/ knotsBaromVisibWave heightAir tempDewpointWater temp
2017-Oct-16 18:55N 32°06' W 091°06'4 4.9
2017-Oct-16 18:10N 32°07' W 091°02'1 7.7
2017-Oct-16 18:01N 32°08' W 091°01'4 8.7
2017-Oct-16 17:31N 32°12' W 090°59'4 8.4
2017-Oct-16 17:01N 32°16' W 090°58'3 6.2
2017-Oct-16 16:31N 32°18' W 090°55'3 5.5
2017-Oct-16 16:01N 32°21' W 090°56'4 7.4
2017-Oct-16 15:31N 32°22' W 091°00'4 7.5
2017-Oct-16 15:01N 32°25' W 091°00'7 7.3
2017-Oct-16 14:00N 32°30' W 091°07'4 8.2
2017-Oct-16 13:30N 32°34' W 091°07'5 7.8
2017-Oct-16 12:50N 32°39' W 091°09'  
Track history (hours):
 
Tides and Currents Weather Stations Pressure Air Temp Water Temp Dewpoint Dewpoint Depression Visibility Wind Speed Wind Dir Waves Ship Positions

Magnolia

Owner: Magnolia Marine Transport Co, Vicksburg, MS. More information available from US FCC via Universal Licensing System and Coast Guard Vessel Documentation Center.

Last reported at 2017-Oct-16 18:55 UTC. Time now 2017-Oct-19 21:38 UTC.
Position N 32°06' W 091°06'.

Length 215 m.

MMSI: 366936960.

Date/timePositionNaut miles runAvg speedWind from/ knotsBaromVisibWave heightAir tempDewpointWater temp
2017-Oct-16 18:55N 32°06' W 091°06'4 4.9
2017-Oct-16 18:10N 32°07' W 091°02'1 7.7
2017-Oct-16 18:01N 32°08' W 091°01'4 8.7
2017-Oct-16 17:31N 32°12' W 090°59'4 8.4
2017-Oct-16 17:01N 32°16' W 090°58'3 6.2
2017-Oct-16 16:31N 32°18' W 090°55'3 5.5
2017-Oct-16 16:01N 32°21' W 090°56'4 7.4
2017-Oct-16 15:31N 32°22' W 091°00'4 7.5
2017-Oct-16 15:01N 32°25' W 091°00'7 7.3
2017-Oct-16 14:00N 32°30' W 091°07'4 8.2
2017-Oct-16 13:30N 32°34' W 091°07'5 7.8
2017-Oct-16 12:50N 32°39' W 091°09'  

Dump ship's entire track history